Time;durP1;ratioP1;P1;durP2;ratioP2;P2;SDS_P1;SDS_P2;PMS_P1;PMS_P2;Temp;Humidity;BMP_temperature;BMP_pressure;BME280_temperature;BME280_humidity;BME280_pressure;Samples;Min_cycle;Max_cycle;Signal;HPM_P1;HPM_P2
2021/04/05 00:00:15;;;;;;;15.93;8.70;;;;;;;3.58;59.00;99801.64;1732680;80;25721;-83
2021/04/05 00:02:41;;;;;;;17.48;10.90;;;;;;;3.53;58.99;99789.59;1731597;80;26300;-83
2021/04/05 00:05:20;;;;;;;16.90;9.33;;;;;;;3.52;59.10;99781.52;1732864;80;25773;-82
2021/04/05 00:07:49;;;;;;;16.30;9.33;;;;;;;3.50;59.39;99776.47;1714482;82;25403;-83
2021/04/05 00:10:20;;;;;;;18.73;9.48;;;;;;;3.47;59.44;99771.56;1732969;81;25794;-83
2021/04/05 00:12:47;;;;;;;17.27;9.63;;;;;;;3.46;59.49;99760.88;1732499;81;25286;-83
2021/04/05 00:15:13;;;;;;;17.37;9.75;;;;;;;3.45;59.62;99761.03;1731495;81;25757;-83
2021/04/05 00:17:40;;;;;;;16.82;8.83;;;;;;;3.42;59.63;99753.06;1710161;82;25287;-83
2021/04/05 00:20:14;;;;;;;18.82;10.03;;;;;;;3.43;59.67;99748.71;1731597;80;25410;-83
2021/04/05 00:22:42;;;;;;;16.62;9.70;;;;;;;3.42;60.07;99749.67;1734323;80;25709;-83
2021/04/05 00:25:09;;;;;;;15.20;8.88;;;;;;;3.42;59.84;99740.16;1732611;80;25325;-83
2021/04/05 00:27:38;;;;;;;18.27;9.73;;;;;;;3.41;60.16;99741.11;1731697;81;26422;-83
2021/04/05 00:30:18;;;;;;;16.65;9.65;;;;;;;3.41;59.85;99734.66;1731199;80;25262;-83
2021/04/05 00:32:47;;;;;;;17.23;9.58;;;;;;;3.41;60.17;99733.81;1734130;80;25954;-82
2021/04/05 00:35:18;;;;;;;17.20;10.03;;;;;;;3.41;59.96;99729.48;1732722;80;25276;-82
2021/04/05 00:37:46;;;;;;;15.48;9.20;;;;;;;3.42;59.99;99725.14;1729046;81;25367;-83
2021/04/05 00:40:17;;;;;;;17.37;9.80;;;;;;;3.41;60.15;99717.87;1709242;82;25843;-83
2021/04/05 00:42:44;;;;;;;17.27;10.53;;;;;;;3.40;60.10;99710.23;1732162;80;25918;-83
2021/04/05 00:45:14;;;;;;;17.95;9.38;;;;;;;3.41;60.05;99711.41;1734503;80;25522;-83
2021/04/05 00:47:45;;;;;;;17.02;9.70;;;;;;;3.42;59.93;99709.16;1732122;80;32543;-83
2021/04/05 00:50:18;;;;;;;14.35;9.65;;;;;;;3.41;59.89;99705.41;1732607;80;25948;-83
2021/04/05 00:52:49;;;;;;;15.00;9.50;;;;;;;3.40;59.93;99702.01;1735613;80;25833;-83
2021/04/05 00:55:14;;;;;;;;;;;;;;;3.39;60.28;99695.22;1713352;82;25941;-83
2021/04/05 00:57:41;;;;;;;18.50;9.67;;;;;;;3.37;60.02;99686.78;1676202;83;28288;-83
2021/04/05 01:00:16;;;;;;;16.57;9.23;;;;;;;3.36;59.98;99681.30;1676595;83;25846;-83
2021/04/05 01:02:42;;;;;;;19.07;10.32;;;;;;;3.36;60.12;99676.61;1675961;83;25812;-83
2021/04/05 01:05:10;;;;;;;17.87;10.15;;;;;;;3.37;60.11;99667.89;1676531;83;25698;-83
2021/04/05 01:07:37;;;;;;;17.32;10.15;;;;;;;3.35;60.18;99666.73;1676341;83;25516;-83
2021/04/05 01:10:10;;;;;;;17.40;9.70;;;;;;;3.34;60.02;99665.91;1711114;82;25825;-83
2021/04/05 01:12:37;;;;;;;17.87;10.63;;;;;;;3.33;60.08;99656.55;1683347;83;25385;-83
2021/04/05 01:15:11;;;;;;;16.57;10.30;;;;;;;3.32;60.05;99651.02;1681741;83;25407;-83
2021/04/05 01:17:38;;;;;;;16.02;9.93;;;;;;;3.31;60.10;99646.83;1683778;83;25867;-82
2021/04/05 01:20:12;;;;;;;18.32;10.13;;;;;;;3.32;60.12;99642.47;1684127;83;25325;-83
2021/04/05 01:22:40;;;;;;;21.17;9.78;;;;;;;3.32;60.13;99638.11;1683441;83;25371;-83
2021/04/05 01:25:10;;;;;;;18.80;11.18;;;;;;;3.32;60.00;99636.82;1683704;83;25745;-83
2021/04/05 01:27:37;;;;;;;16.55;9.98;;;;;;;3.30;60.09;99630.16;1684837;83;25342;-83
2021/04/05 01:30:27;;;;;;;20.10;10.55;;;;;;;3.30;60.21;99624.99;1684665;83;25878;-83
2021/04/05 01:32:45;;;;;;;16.35;10.38;;;;;;;3.28;60.14;99621.27;1709543;82;25799;-83
2021/04/05 01:35:11;;;;;;;17.23;10.10;;;;;;;3.26;60.19;99614.61;1712017;82;34984;-82
2021/04/05 01:37:37;;;;;;;16.35;10.10;;;;;;;3.23;60.17;99609.72;1731419;80;26417;-83
2021/04/05 01:40:04;;;;;;;16.13;10.33;;;;;;;3.22;60.34;99597.75;1733901;81;25642;-83
2021/04/05 01:42:30;;;;;;;16.12;9.70;;;;;;;3.22;60.31;99593.88;1713892;82;25781;-83
2021/04/05 01:44:58;;;;;;;16.90;9.90;;;;;;;3.20;60.49;99592.73;1712888;82;31992;-83
2021/04/05 01:47:24;;;;;;;17.17;9.50;;;;;;;3.18;60.36;99589.47;1714884;82;25386;-83
2021/04/05 01:49:49;;;;;;;17.27;9.93;;;;;;;3.17;60.61;99593.02;1716553;79;25352;-83
2021/04/05 01:52:16;;;;;;;16.70;10.83;;;;;;;3.15;60.63;99593.61;1740049;80;25820;-83
2021/04/05 01:54:42;;;;;;;16.67;10.65;;;;;;;3.11;60.65;99584.53;1740861;80;25572;-83
2021/04/05 01:57:09;;;;;;;15.87;10.47;;;;;;;3.11;60.85;99582.76;1739368;80;25293;-83
2021/04/05 01:59:38;;;;;;;18.45;10.78;;;;;;;3.11;60.85;99579.36;1740458;80;25344;-82
2021/04/05 02:02:06;;;;;;;17.27;9.90;;;;;;;3.09;60.72;99576.91;1741515;80;25301;-83
2021/04/05 02:04:35;;;;;;;18.35;10.55;;;;;;;3.08;60.68;99566.70;1737781;80;25693;-83
2021/04/05 02:07:03;;;;;;;17.42;10.15;;;;;;;3.07;60.71;99565.08;1738403;80;25693;-83
2021/04/05 02:09:29;;;;;;;16.10;10.40;;;;;;;3.08;60.71;99558.51;1737578;80;25711;-83
2021/04/05 02:11:55;;;;;;;16.83;10.57;;;;;;;3.07;60.72;99559.92;1737977;80;34996;-83
2021/04/05 02:14:21;;;;;;;18.40;9.90;;;;;;;3.05;60.81;99552.78;1739370;80;25380;-82
2021/04/05 02:16:47;;;;;;;14.63;10.03;;;;;;;3.05;60.93;99551.01;1738494;79;25325;-83
2021/04/05 02:19:16;;;;;;;21.43;10.63;;;;;;;3.04;60.89;99550.69;1719495;80;25869;-83
2021/04/05 02:21:47;;;;;;;17.60;10.80;;;;;;;3.03;60.91;99555.52;1738807;80;25694;-83
2021/04/05 02:24:14;;;;;;;17.25;10.35;;;;;;;3.04;60.89;99553.27;1739976;80;25570;-83
2021/04/05 02:26:42;;;;;;;19.15;10.60;;;;;;;3.05;60.87;99545.04;1740206;80;25293;-83
2021/04/05 02:29:08;;;;;;;21.17;11.45;;;;;;;3.05;60.99;99537.30;1740298;80;25865;-83
2021/04/05 02:31:36;;;;;;;17.10;10.72;;;;;;;3.01;60.91;99539.83;1738524;80;25590;-83
2021/04/05 02:34:03;;;;;;;22.67;11.33;;;;;;;2.96;60.99;99529.09;1737570;80;25282;-83
2021/04/05 02:36:33;;;;;;;18.62;11.68;;;;;;;2.95;61.05;99528.28;1739199;80;25304;-83
2021/04/05 02:39:06;;;;;;;18.20;10.38;;;;;;;2.96;61.13;99531.67;1724208;81;32577;-83
2021/04/05 02:41:37;;;;;;;16.77;10.45;;;;;;;2.93;61.06;99527.59;1723385;81;26018;-83
2021/04/05 02:44:04;;;;;;;17.75;10.28;;;;;;;2.91;61.18;99518.36;1766645;80;25567;-83
2021/04/05 02:46:35;;;;;;;21.00;11.08;;;;;;;2.86;61.30;99510.56;1731993;80;25766;-83
2021/04/05 02:49:08;;;;;;;19.23;12.25;;;;;;;2.83;61.26;99509.52;1765154;80;26240;-83
2021/04/05 02:51:34;;;;;;;19.40;10.65;;;;;;;2.83;61.44;99503.07;1745034;80;25347;-83
2021/04/05 02:54:01;;;;;;;19.75;11.93;;;;;;;2.81;61.46;99495.96;1768458;80;25529;-83
2021/04/05 02:56:30;;;;;;;16.85;11.15;;;;;;;2.79;61.45;99488.02;1726717;81;25797;-83
2021/04/05 02:58:57;;;;;;;18.90;11.48;;;;;;;2.77;61.55;99484.27;1702592;81;25715;-83
2021/04/05 03:01:26;;;;;;;18.15;11.70;;;;;;;2.77;61.64;99468.79;1725441;81;25320;-82
2021/04/05 03:03:56;;;;;;;19.90;11.90;;;;;;;2.76;61.71;99472.33;1724093;81;25575;-83
2021/04/05 03:06:24;;;;;;;16.70;11.10;;;;;;;2.74;61.67;99474.70;1767098;79;25822;-83
2021/04/05 03:08:50;;;;;;;18.75;12.05;;;;;;;2.72;61.69;99463.70;1740399;80;25679;-83
2021/04/05 03:11:21;;;;;;;22.52;11.45;;;;;;;2.72;61.74;99458.54;1736529;80;25749;-83
2021/04/05 03:13:47;;;;;;;;;;;;;;;2.72;61.82;99458.06;1742686;80;25326;-82
2021/04/05 03:16:23;;;;;;;18.77;11.00;;;;;;;2.71;61.84;99451.28;1739733;80;25366;-82
2021/04/05 03:18:51;;;;;;;18.92;11.80;;;;;;;2.67;61.93;99446.05;1738037;80;25329;-83
2021/04/05 03:21:22;;;;;;;22.75;12.03;;;;;;;2.65;61.99;99428.14;1739804;80;26000;-83
2021/04/05 03:23:48;;;;;;;23.07;11.90;;;;;;;2.63;62.07;99425.36;1739421;80;25590;-83
2021/04/05 03:26:15;;;;;;;21.10;11.57;;;;;;;2.59;62.15;99417.09;1739567;80;25340;-83
2021/04/05 03:28:41;;;;;;;18.02;10.88;;;;;;;2.59;62.35;99411.92;1736596;80;25859;-83
2021/04/05 03:31:22;;;;;;;19.87;12.20;;;;;;;2.56;62.30;99397.98;1768763;80;25723;-83
2021/04/05 03:34:14;;;;;;;24.50;11.68;;;;;;;2.55;62.42;99406.69;1731055;80;25666;-84
2021/04/05 03:36:47;;;;;;;19.23;11.63;;;;;;;2.54;62.49;99401.20;1730008;81;25643;-83
2021/04/05 03:39:16;;;;;;;20.27;12.00;;;;;;;2.54;62.51;99399.11;1714762;81;25751;-83
2021/04/05 03:42:15;;;;;;;20.77;12.98;;;;;;;2.51;62.59;99391.62;1725383;81;25366;-83
2021/04/05 03:45:07;;;;;;;19.00;12.05;;;;;;;2.51;62.65;99373.56;1723329;80;26022;-84
2021/04/05 03:47:54;;;;;;;20.02;11.93;;;;;;;2.50;62.76;99368.89;1724750;81;27045;-84
2021/04/05 03:50:37;;;;;;;21.55;13.25;;;;;;;2.49;62.81;99365.17;1720912;81;25722;-84
2021/04/05 03:53:39;;;;;;;22.45;11.50;;;;;;;2.47;62.97;99361.43;1719665;81;25845;-82
2021/04/05 03:56:17;;;;;;;21.75;12.00;;;;;;;2.44;63.15;99354.78;1724813;80;25821;-84
2021/04/05 03:58:47;;;;;;;20.45;12.15;;;;;;;2.44;63.04;99344.95;1723389;81;25693;-84
2021/04/05 04:01:18;;;;;;;23.85;12.73;;;;;;;2.44;63.11;99339.30;1724434;81;25856;-83
2021/04/05 04:04:03;;;;;;;22.17;12.82;;;;;;;2.45;63.15;99332.38;1767355;80;25329;-83
2021/04/05 04:06:43;;;;;;;24.30;12.75;;;;;;;2.44;63.16;99325.61;1745417;80;25832;-83
2021/04/05 04:09:04;;;;;;;21.33;12.90;;;;;;;2.42;63.23;99313.32;1747474;80;25324;-84
2021/04/05 04:11:33;;;;;;;21.90;12.47;;;;;;;2.42;63.38;99313.32;1728424;81;25385;-84
2021/04/05 04:14:03;;;;;;;22.70;12.98;;;;;;;2.40;63.37;99307.48;1745088;79;26572;-84
2021/04/05 04:16:30;;;;;;;24.87;14.38;;;;;;;2.40;63.43;99307.03;1765500;80;25519;-84
2021/04/05 04:19:04;;;;;;;25.62;13.88;;;;;;;2.42;63.49;99303.81;1743616;80;25280;-83
2021/04/05 04:21:30;;;;;;;25.10;14.80;;;;;;;2.44;63.42;99307.55;1739295;80;25378;-84
2021/04/05 04:23:57;;;;;;;22.20;13.15;;;;;;;2.46;63.61;99305.66;1715191;81;25331;-83
2021/04/05 04:26:25;;;;;;;19.67;12.45;;;;;;;2.45;63.48;99301.44;1762777;79;25585;-83
2021/04/05 04:28:51;;;;;;;24.02;14.73;;;;;;;2.48;63.54;99296.48;1745387;80;25248;-83
2021/04/05 04:31:20;;;;;;;27.13;14.15;;;;;;;2.47;63.57;99291.80;1762431;79;25804;-83
2021/04/05 04:33:48;;;;;;;22.70;13.53;;;;;;;2.48;63.64;99283.09;1764159;80;25314;-83
2021/04/05 04:36:25;;;;;;;21.90;13.18;;;;;;;2.49;63.68;99275.72;1725314;81;25323;-83
2021/04/05 04:38:56;;;;;;;26.02;15.15;;;;;;;2.51;63.63;99267.83;1724990;81;25692;-83
2021/04/05 04:41:26;;;;;;;25.90;14.95;;;;;;;2.53;63.68;99257.70;1725439;81;25337;-84
2021/04/05 04:44:01;;;;;;;29.85;14.33;;;;;;;2.55;63.70;99239.52;1725597;81;25771;-84
2021/04/05 04:46:28;;;;;;;21.12;13.05;;;;;;;2.54;63.70;99233.56;1727028;81;25733;-83
2021/04/05 04:49:01;;;;;;;27.45;15.63;;;;;;;2.56;63.69;99225.18;1726790;81;25313;-83
2021/04/05 04:51:28;;;;;;;21.90;13.88;;;;;;;2.56;63.72;99220.50;1724922;81;25912;-82
2021/04/05 04:53:57;;;;;;;19.75;13.78;;;;;;;2.59;63.69;99215.06;1729645;80;25374;-82
2021/04/05 04:56:23;;;;;;;22.62;14.70;;;;;;;2.62;63.68;99212.22;1732067;81;25361;-82
2021/04/05 04:58:49;;;;;;;26.20;15.75;;;;;;;2.64;63.68;99211.09;1759075;79;25304;-82
2021/04/05 05:01:17;;;;;;;26.33;15.60;;;;;;;2.66;63.70;99209.68;1733562;81;25851;-82
2021/04/05 05:03:57;;;;;;;23.57;14.70;;;;;;;2.66;63.78;99198.88;1734164;81;25786;-82
2021/04/05 05:06:25;;;;;;;22.98;13.85;;;;;;;2.72;63.81;99198.78;1733969;80;25966;-82
2021/04/05 05:08:51;;;;;;;27.93;16.17;;;;;;;2.75;63.75;99195.91;1776297;79;25856;-82
2021/04/05 05:11:18;;;;;;;25.17;14.85;;;;;;;2.80;63.77;99199.36;1733647;80;25367;-82
2021/04/05 05:13:44;;;;;;;23.87;15.10;;;;;;;2.84;63.66;99188.61;1734338;80;25340;-82
2021/04/05 05:16:10;;;;;;;23.47;13.78;;;;;;;2.90;63.61;99193.67;1735399;81;25672;-82
2021/04/05 05:18:36;;;;;;;23.77;14.28;;;;;;;2.94;63.68;99187.73;1761419;79;25798;-82
2021/04/05 05:21:06;;;;;;;24.10;14.47;;;;;;;2.99;63.64;99188.12;1732159;80;25337;-82
2021/04/05 05:23:36;;;;;;;27.07;15.20;;;;;;;3.05;63.58;99188.33;1760147;79;25296;-82
2021/04/05 05:26:03;;;;;;;26.60;15.08;;;;;;;3.13;63.41;99186.80;1732005;80;25365;-82
2021/04/05 05:28:32;;;;;;;23.30;14.10;;;;;;;3.17;63.25;99185.57;1773716;79;25768;-83
2021/04/05 05:30:59;;;;;;;24.75;14.15;;;;;;;3.21;63.08;99188.17;1745394;80;43242;-83
2021/04/05 05:33:25;;;;;;;23.83;13.85;;;;;;;3.25;63.02;99190.33;1730059;81;25310;-83
2021/04/05 05:35:52;;;;;;;23.10;14.17;;;;;;;3.31;62.98;99187.63;1732409;81;25309;-83
2021/04/05 05:38:22;;;;;;;23.52;14.30;;;;;;;3.37;62.86;99184.45;1728252;81;25366;-83
2021/04/05 05:40:49;;;;;;;24.97;16.17;;;;;;;3.45;62.92;99178.55;1732990;80;25906;-83
2021/04/05 05:43:47;;;;;;;22.95;13.22;;;;;;;3.54;62.68;99172.48;1759406;79;25347;-82
2021/04/05 05:46:24;;;;;;;23.20;14.20;;;;;;;3.63;62.08;99164.31;1730833;81;25656;-82
2021/04/05 05:49:16;;;;;;;26.42;13.55;;;;;;;3.71;61.94;99163.08;1730485;80;26061;-82
2021/04/05 05:52:07;;;;;;;20.72;12.63;;;;;;;3.78;61.85;99152.00;1759926;79;25312;-82
2021/04/05 05:54:53;;;;;;;23.55;14.18;;;;;;;3.87;61.18;99150.76;1758953;79;25851;-83
2021/04/05 05:57:47;;;;;;;24.00;13.43;;;;;;;3.94;61.25;99143.55;1758916;79;25304;-83
2021/04/05 06:00:24;;;;;;;20.25;12.50;;;;;;;4.00;61.12;99142.92;1732750;80;25401;-84
2021/04/05 06:03:24;;;;;;;24.67;13.58;;;;;;;4.07;60.58;99130.70;1771511;79;25862;-84
2021/04/05 06:06:33;;;;;;;25.40;14.53;;;;;;;4.13;60.42;99127.00;1744113;80;25333;-86
2021/04/05 06:09:25;;;;;;;23.62;13.55;;;;;;;4.20;60.74;99115.09;1745826;80;26421;-86
2021/04/05 06:12:31;;;;;;;24.57;13.32;;;;;;;4.29;60.79;99115.13;1706300;81;25782;-86
2021/04/05 06:15:21;;;;;;;26.00;14.40;;;;;;;4.37;60.34;99109.50;1706451;82;25800;-86
2021/04/05 06:18:01;;;;;;;22.60;14.13;;;;;;;4.44;60.53;99114.35;1708117;81;25535;-86
2021/04/05 06:20:40;;;;;;;22.17;13.48;;;;;;;4.51;60.26;99105.98;1714274;81;25311;-86
2021/04/05 06:23:49;;;;;;;21.25;13.30;;;;;;;4.58;59.87;99097.91;1732231;81;25911;-86
2021/04/05 06:26:32;;;;;;;23.07;13.75;;;;;;;4.65;59.88;99085.48;1713877;81;25365;-83
2021/04/05 06:29:22;;;;;;;28.02;14.15;;;;;;;4.78;60.00;99085.52;1710169;81;25986;-82
2021/04/05 06:32:10;;;;;;;29.35;14.93;;;;;;;4.89;60.25;99079.53;1710097;81;25765;-82
2021/04/05 06:34:56;;;;;;;21.82;12.88;;;;;;;5.00;60.15;99077.13;1713113;81;25294;-82
2021/04/05 06:37:37;;;;;;;23.12;12.98;;;;;;;5.09;59.67;99074.85;1713144;81;25713;-82
2021/04/05 06:40:08;;;;;;;;;;;;;;;5.19;59.18;99068.23;1681167;82;25415;-82
2021/04/05 06:43:06;;;;;;;23.22;14.50;;;;;;;5.31;59.47;99066.91;1695332;82;26154;-83
2021/04/05 06:45:50;;;;;;;23.12;13.53;;;;;;;5.42;59.04;99061.08;1694434;82;25721;-81
2021/04/05 06:48:50;;;;;;;19.73;12.85;;;;;;;5.55;59.04;99062.69;1678596;83;25420;-83
2021/04/05 06:51:40;;;;;;;;;;;;;;;5.67;59.21;99050.98;1653329;84;25840;-84
2021/04/05 06:54:34;;;;;;;26.15;12.25;;;;;;;5.81;58.66;99040.44;1674713;84;25780;-85
2021/04/05 06:57:22;;;;;;;19.30;10.93;;;;;;;5.93;58.49;99033.10;1672303;84;25795;-82
2021/04/05 07:00:09;;;;;;;22.55;11.70;;;;;;;6.04;57.38;99024.17;1674682;84;25344;-84
2021/04/05 07:02:59;;;;;;;21.55;11.15;;;;;;;6.12;56.52;99025.44;1649288;85;25579;-80
2021/04/05 07:05:58;;;;;;;21.23;10.43;;;;;;;6.20;56.94;99016.31;1673698;83;25718;-84
2021/04/05 07:08:35;;;;;;;26.23;12.25;;;;;;;6.29;57.24;99011.39;1669534;83;25895;-83
2021/04/05 07:11:25;;;;;;;20.68;10.90;;;;;;;6.43;57.42;99003.36;1670936;82;25879;-80
2021/04/05 07:14:28;;;;;;;22.60;12.55;;;;;;;6.57;57.23;99001.31;1653225;84;26808;-78
2021/04/05 07:17:23;;;;;;;22.93;11.83;;;;;;;6.70;57.43;98992.95;1706877;82;25900;-83
2021/04/05 07:20:18;;;;;;;19.48;11.30;;;;;;;6.82;57.26;98986.39;1707710;82;25890;-85
2021/04/05 07:23:07;;;;;;;22.10;11.48;;;;;;;6.94;57.13;98983.38;1706157;82;25349;-82
2021/04/05 07:26:12;;;;;;;23.32;12.37;;;;;;;7.04;57.05;98983.44;1703234;82;25653;-80
2021/04/05 07:29:04;;;;;;;21.12;11.28;;;;;;;7.14;57.17;98980.58;1744021;80;25753;-82
2021/04/05 07:31:53;;;;;;;18.57;11.68;;;;;;;7.24;56.45;98977.73;1748499;80;25432;-82
2021/04/05 07:34:39;;;;;;;21.20;10.60;;;;;;;7.27;56.40;98972.18;1747551;80;25895;-82
2021/04/05 07:37:34;;;;;;;18.27;9.95;;;;;;;7.33;55.90;98959.27;1748468;80;25794;-82
2021/04/05 07:40:06;;;;;;;27.45;10.48;;;;;;;7.40;55.07;98951.58;1746242;80;25643;-82
2021/04/05 07:42:50;;;;;;;15.58;10.00;;;;;;;7.46;54.69;98948.25;1746773;80;25772;-80
2021/04/05 07:45:27;;;;;;;17.62;9.43;;;;;;;7.52;54.29;98941.52;1743196;80;25780;-80
2021/04/05 07:48:02;;;;;;;15.98;9.53;;;;;;;7.60;54.23;98942.73;1744762;80;25821;-79
2021/04/05 07:51:12;;;;;;;15.28;9.53;;;;;;;7.69;54.13;98936.93;1750262;80;26527;-79
2021/04/05 07:54:02;;;;;;;16.50;9.90;;;;;;;7.79;53.85;98923.16;1749860;80;25343;-79
2021/04/05 07:56:35;;;;;;;15.30;8.48;;;;;;;7.93;52.76;98917.61;1750013;80;25700;-81
2021/04/05 07:59:24;;;;;;;14.40;7.90;;;;;;;8.06;52.53;98915.65;1748732;80;25309;-81
2021/04/05 08:02:33;;;;;;;14.13;7.58;;;;;;;8.21;52.39;98904.20;1749337;80;25855;-81
2021/04/05 08:05:40;;;;;;;13.60;8.28;;;;;;;8.36;52.56;98895.52;1747736;80;25296;-82
2021/04/05 08:08:35;;;;;;;12.37;7.33;;;;;;;8.46;50.60;98883.02;1748789;80;25777;-82
2021/04/05 08:11:41;;;;;;;13.62;7.28;;;;;;;8.59;51.61;98878.40;1746376;80;25311;-82
2021/04/05 08:14:38;;;;;;;14.13;8.03;;;;;;;8.68;50.88;98883.80;1747588;80;25794;-82
2021/04/05 08:17:55;;;;;;;15.50;8.43;;;;;;;8.76;50.77;98884.16;1748628;80;25790;-82
2021/04/05 08:20:36;;;;;;;16.50;7.55;;;;;;;8.77;50.67;98881.34;1782238;79;25282;-80
2021/04/05 08:23:39;;;;;;;11.40;7.00;;;;;;;8.79;50.42;98862.94;1759648;79;25780;-80
2021/04/05 08:26:26;;;;;;;11.60;6.28;;;;;;;8.82;50.45;98859.45;1754737;79;25917;-80
2021/04/05 08:29:18;;;;;;;14.40;7.58;;;;;;;8.87;49.95;98864.89;1775770;79;25744;-80
2021/04/05 08:32:01;;;;;;;13.40;7.95;;;;;;;8.94;49.91;98862.31;1722178;81;25785;-80
2021/04/05 08:34:47;;;;;;;13.90;7.75;;;;;;;9.09;49.77;98857.00;1718031;82;25863;-80
2021/04/05 08:37:30;;;;;;;12.73;7.33;;;;;;;9.23;49.07;98846.94;1720442;82;25372;-81
2021/04/05 08:40:22;;;;;;;13.08;7.47;;;;;;;9.34;49.12;98839.86;1676291;83;25818;-80
2021/04/05 08:43:16;;;;;;;15.83;8.03;;;;;;;9.45;49.52;98831.98;1685033;83;25757;-80
2021/04/05 08:45:47;;;;;;;14.47;7.65;;;;;;;9.45;48.05;98822.06;1683815;83;25792;-80
2021/04/05 08:48:19;;;;;;;17.45;7.65;;;;;;;9.48;48.33;98811.23;1684081;83;25873;-81
2021/04/05 08:50:52;;;;;;;15.48;7.45;;;;;;;9.49;46.92;98802.39;1684420;83;25830;-80
2021/04/05 08:53:20;;;;;;;13.38;7.95;;;;;;;9.47;48.28;98796.59;1662088;84;26066;-80
2021/04/05 08:55:47;;;;;;;12.45;7.03;;;;;;;9.55;47.97;98795.11;1686719;83;25630;-80
2021/04/05 08:58:43;;;;;;;15.32;7.87;;;;;;;9.61;48.59;98781.27;1686379;83;25911;-80
2021/04/05 09:01:13;;;;;;;14.00;7.45;;;;;;;9.71;48.72;98777.79;1685755;83;25911;-81
2021/04/05 09:03:44;;;;;;;14.50;6.53;;;;;;;9.84;47.56;98758.72;1682508;83;25776;-80
2021/04/05 09:06:14;;;;;;;14.70;8.20;;;;;;;9.84;46.59;98754.80;1682991;83;25798;-79
2021/04/05 09:08:43;;;;;;;12.55;7.53;;;;;;;9.80;47.56;98745.78;1684587;83;25555;-82
2021/04/05 09:11:12;;;;;;;11.45;7.00;;;;;;;9.93;49.26;98743.66;1691611;82;26031;-80
2021/04/05 09:13:45;;;;;;;16.48;7.17;;;;;;;10.07;48.50;98728.83;1755164;79;25314;-81
2021/04/05 09:17:07;;;;;;;13.20;6.72;;;;;;;10.18;48.77;98725.59;1755640;79;25753;-82
2021/04/05 09:19:47;;;;;;;10.53;6.70;;;;;;;10.27;47.34;98715.73;1754858;79;25570;-84
2021/04/05 09:22:50;;;;;;;15.78;7.05;;;;;;;10.32;47.46;98730.33;1751475;79;25645;-82
2021/04/05 09:25:49;;;;;;;14.20;6.60;;;;;;;10.35;48.16;98737.24;1754747;79;26457;-80
2021/04/05 09:28:53;;;;;;;13.68;6.87;;;;;;;10.39;47.36;98731.93;1752844;79;25776;-82
2021/04/05 09:31:51;;;;;;;11.68;7.60;;;;;;;10.40;47.52;98721.77;1747031;80;25759;-82
2021/04/05 09:35:06;;;;;;;12.43;6.50;;;;;;;10.40;47.60;98726.99;1755299;79;25334;-81
2021/04/05 09:37:49;;;;;;;10.63;6.00;;;;;;;10.38;47.84;98713.84;1783316;79;25510;-81
2021/04/05 09:40:29;;;;;;;12.53;6.92;;;;;;;10.42;46.99;98707.19;1754560;79;26003;-83
2021/04/05 09:43:26;;;;;;;18.55;8.03;;;;;;;10.53;47.78;98694.82;1754250;79;25365;-84
2021/04/05 09:46:35;;;;;;;15.08;6.92;;;;;;;10.60;47.54;98696.09;1773909;79;25314;-80
2021/04/05 09:49:12;;;;;;;12.33;5.85;;;;;;;10.69;47.68;98682.29;1757267;79;25707;-83
2021/04/05 09:51:52;;;;;;;12.80;6.65;;;;;;;10.66;46.95;98675.66;1732905;81;25274;-83
2021/04/05 09:54:27;;;;;;;11.35;7.05;;;;;;;10.68;47.61;98667.13;1731919;81;25775;-82
2021/04/05 09:56:57;;;;;;;12.37;6.87;;;;;;;10.71;47.45;98669.83;1732481;81;25652;-83
2021/04/05 09:59:29;;;;;;;;;;;;;;;10.74;47.65;98660.27;1734798;81;25336;-83
2021/04/05 10:01:56;;;;;;;10.38;5.87;;;;;;;10.83;47.06;98661.13;1733098;81;25697;-80
2021/04/05 10:04:24;;;;;;;13.18;6.92;;;;;;;10.98;46.68;98656.92;1734100;80;25884;-81
2021/04/05 10:06:52;;;;;;;14.65;6.65;;;;;;;10.98;46.45;98645.16;1732244;81;25795;-82
2021/04/05 10:09:28;;;;;;;12.73;6.17;;;;;;;10.89;44.48;98634.16;1731781;81;25702;-85
2021/04/05 10:11:54;;;;;;;12.37;6.53;;;;;;;10.81;44.72;98644.86;1732297;81;25763;-79
2021/04/05 10:14:23;;;;;;;20.12;7.33;;;;;;;10.84;45.43;98637.90;1732451;81;25785;-83
2021/04/05 10:16:53;;;;;;;10.13;6.03;;;;;;;10.87;45.35;98644.02;1732946;81;25348;-85
2021/04/05 10:19:33;;;;;;;13.10;5.97;;;;;;;10.87;45.73;98631.45;1732378;81;25686;-83
2021/04/05 10:22:06;;;;;;;11.25;5.90;;;;;;;10.91;45.53;98625.30;1732456;81;25830;-86
2021/04/05 10:24:34;;;;;;;10.88;6.40;;;;;;;10.93;45.83;98622.77;1731514;81;25752;-84
2021/04/05 10:27:05;;;;;;;8.73;6.03;;;;;;;10.94;45.38;98633.53;1711823;82;25373;-84
2021/04/05 10:29:35;;;;;;;12.50;6.30;;;;;;;10.92;45.25;98631.63;1731721;81;25270;-83
2021/04/05 10:32:05;;;;;;;11.08;5.75;;;;;;;10.87;44.66;98621.00;1732704;81;25619;-84
2021/04/05 10:34:35;;;;;;;10.80;5.80;;;;;;;10.82;44.25;98608.55;1731773;81;25267;-84
2021/04/05 10:37:14;;;;;;;10.78;5.53;;;;;;;10.81;45.07;98600.42;1731442;81;25724;-84
2021/04/05 10:39:48;;;;;;;11.20;5.33;;;;;;;10.85;44.71;98596.88;1733137;81;25296;-83
2021/04/05 10:42:34;;;;;;;10.48;5.83;;;;;;;10.86;44.60;98587.53;1732125;81;25297;-83
2021/04/05 10:45:26;;;;;;;11.05;5.83;;;;;;;10.87;44.16;98594.86;1639516;86;25744;-84
2021/04/05 10:48:06;;;;;;;11.20;5.53;;;;;;;10.90;44.98;98583.98;1708835;82;25856;-81
2021/04/05 10:50:56;;;;;;;10.48;5.10;;;;;;;10.94;45.01;98581.25;1708818;81;26034;-82
2021/04/05 10:53:26;;;;;;;10.45;6.00;;;;;;;10.98;45.01;98573.27;1703350;82;25795;-83
2021/04/05 10:56:00;;;;;;;9.75;5.65;;;;;;;11.03;44.72;98570.03;1705036;82;25793;-83
2021/04/05 10:58:34;;;;;;;10.13;5.03;;;;;;;11.08;45.16;98563.16;1713024;82;25911;-83
2021/04/05 11:01:04;;;;;;;14.28;6.00;;;;;;;11.16;44.35;98558.66;1713612;82;26004;-82
2021/04/05 11:03:31;;;;;;;;;;;;;;;11.18;43.87;98554.02;1718099;82;25833;-82
2021/04/05 11:06:02;;;;;;;14.35;5.85;;;;;;;11.19;43.84;98542.56;1715030;81;25748;-83
2021/04/05 11:08:33;;;;;;;8.88;5.20;;;;;;;11.21;44.03;98543.95;1693054;83;25836;-82
2021/04/05 11:11:12;;;;;;;12.20;5.35;;;;;;;11.23;43.76;98532.75;1689638;83;26650;-82
2021/04/05 11:13:49;;;;;;;11.30;5.13;;;;;;;11.27;44.37;98526.09;1689718;83;25768;-83
2021/04/05 11:16:21;;;;;;;12.25;5.12;;;;;;;11.29;44.21;98519.32;1710876;82;25871;-83
2021/04/05 11:18:53;;;;;;;13.65;5.60;;;;;;;11.33;44.16;98503.51;1715453;82;26634;-83
2021/04/05 11:21:24;;;;;;;13.15;5.17;;;;;;;11.35;43.93;98506.71;1717422;80;25816;-83
2021/04/05 11:23:55;;;;;;;;;;;;;;;11.38;43.55;98490.59;1818152;78;27389;-83
2021/04/05 11:26:26;;;;;;;11.63;5.03;;;;;;;11.42;42.76;98489.63;1737790;80;25724;-83
2021/04/05 11:28:58;;;;;;;10.13;4.90;;;;;;;11.42;43.18;98485.71;1738712;80;25846;-83
2021/04/05 11:31:25;;;;;;;12.13;5.00;;;;;;;11.40;42.37;98495.58;1765854;79;25656;-83
2021/04/05 11:34:00;;;;;;;9.88;4.83;;;;;;;11.38;42.35;98493.20;1776340;79;25367;-83
2021/04/05 11:36:43;;;;;;;10.55;5.22;;;;;;;11.37;42.26;98478.50;1776749;79;25845;-83
2021/04/05 11:39:15;;;;;;;8.78;4.80;;;;;;;11.38;42.52;98479.33;1775428;78;25750;-83
2021/04/05 11:41:50;;;;;;;12.63;5.35;;;;;;;11.40;43.65;98477.27;1754431;78;25745;-82
2021/04/05 11:44:19;;;;;;;10.60;4.97;;;;;;;11.45;43.29;98489.99;1811704;78;25729;-83
2021/04/05 11:46:48;;;;;;;12.78;5.95;;;;;;;11.45;43.34;98481.34;1787959;78;25310;-82
2021/04/05 11:49:15;;;;;;;12.73;5.30;;;;;;;11.46;43.58;98490.30;1815083;78;25722;-83
2021/04/05 11:52:16;;;;;;;11.55;5.20;;;;;;;11.49;43.10;98485.14;1812447;78;25676;-83
2021/04/05 11:54:52;;;;;;;12.33;6.12;;;;;;;11.49;43.31;98478.61;1762733;79;25837;-82
2021/04/05 11:57:29;;;;;;;12.78;5.03;;;;;;;11.50;43.71;98476.27;1813389;78;25741;-83
2021/04/05 12:00:11;;;;;;;10.25;5.65;;;;;;;11.50;42.23;98474.96;1818524;78;25702;-83
2021/04/05 12:02:48;;;;;;;17.23;5.53;;;;;;;11.56;42.56;98466.23;1764237;79;26421;-83
2021/04/05 12:05:28;;;;;;;10.23;4.83;;;;;;;11.62;43.08;98473.72;1763503;79;25660;-83
2021/04/05 12:08:08;;;;;;;14.85;5.05;;;;;;;11.65;41.54;98464.95;1763095;79;25688;-83
2021/04/05 12:10:37;;;;;;;12.45;4.80;;;;;;;11.67;42.73;98460.27;1672445;83;25823;-83
2021/04/05 12:13:29;;;;;;;11.63;4.72;;;;;;;11.69;41.68;98450.39;1667779;83;25929;-83